Time;durP1;ratioP1;P1;durP2;ratioP2;P2;SDS_P1;SDS_P2;PMS_P1;PMS_P2;Temp;Humidity;BMP_temperature;BMP_pressure;BME280_temperature;BME280_humidity;BME280_pressure;Samples;Min_cycle;Max_cycle;Signal;HPM_P1;HPM_P2
2022/04/10 00:00:21;;;;;;;10.90;4.32;;;;;;;2.15;100.00;101501.06;4943881;29;20155;-82
2022/04/10 00:02:46;;;;;;;11.82;5.30;;;;;;;2.22;100.00;101515.22;4966511;28;20513;-83
2022/04/10 00:05:12;;;;;;;12.18;4.95;;;;;;;2.18;100.00;101507.22;4977879;28;20027;-83
2022/04/10 00:07:37;;;;;;;14.60;5.15;;;;;;;2.26;100.00;101515.06;4980869;28;20430;-83
2022/04/10 00:10:04;;;;;;;18.52;5.88;;;;;;;2.19;100.00;101505.41;4976131;28;20071;-81
2022/04/10 00:12:33;;;;;;;12.70;5.10;;;;;;;2.13;100.00;101501.09;4959510;28;20050;-82
2022/04/10 00:15:03;;;;;;;11.38;5.15;;;;;;;1.84;100.00;101459.72;4961140;29;20036;-83
2022/04/10 00:17:29;;;;;;;13.95;4.55;;;;;;;2.07;100.00;101492.31;4967779;28;20042;-81
2022/04/10 00:19:54;;;;;;;12.30;5.50;;;;;;;1.93;100.00;101468.47;4949039;29;20027;-82
2022/04/10 00:22:21;;;;;;;14.13;4.63;;;;;;;1.98;100.00;101470.09;4961578;28;20024;-81
2022/04/10 00:24:46;;;;;;;11.73;4.50;;;;;;;1.99;100.00;101479.06;4960682;29;20039;-81
2022/04/10 00:27:13;;;;;;;16.20;6.18;;;;;;;2.06;100.00;101487.84;4946167;28;20085;-82
2022/04/10 00:29:40;;;;;;;15.10;5.05;;;;;;;2.13;100.00;101508.31;4980947;28;20054;-81
2022/04/10 00:32:06;;;;;;;14.43;5.03;;;;;;;2.13;100.00;101508.31;4959981;28;20031;-82
2022/04/10 00:34:33;;;;;;;17.98;4.68;;;;;;;1.95;100.00;101483.69;4978973;28;20512;-83
2022/04/10 00:36:59;;;;;;;13.60;5.25;;;;;;;1.92;100.00;101478.38;4964227;28;20109;-80
2022/04/10 00:39:24;;;;;;;9.15;5.50;;;;;;;2.07;100.00;101509.41;4970946;28;20122;-81
2022/04/10 00:41:51;;;;;;;12.20;5.28;;;;;;;1.99;100.00;101485.34;4963536;28;20116;-81
2022/04/10 00:44:18;;;;;;;11.10;5.32;;;;;;;2.06;100.00;101502.22;4961222;28;20111;-81
2022/04/10 00:46:43;;;;;;;16.90;6.40;;;;;;;2.02;100.00;101501.44;4948756;28;20080;-82
2022/04/10 00:49:09;;;;;;;8.60;5.68;;;;;;;1.94;100.00;101503.53;4963835;28;20129;-81
2022/04/10 00:51:41;;;;;;;13.38;6.18;;;;;;;1.94;100.00;101495.41;4978417;28;20094;-82
2022/04/10 00:54:24;;;;;;;23.95;6.28;;;;;;;1.99;100.00;101508.78;4957946;29;20062;-82
2022/04/10 00:56:50;;;;;;;16.45;5.97;;;;;;;1.96;100.00;101509.75;4961477;28;20038;-81
2022/04/10 00:59:16;;;;;;;18.88;5.55;;;;;;;2.01;100.00;101513.16;4979939;28;20023;-82
2022/04/10 01:01:44;;;;;;;17.08;5.70;;;;;;;1.94;100.00;101499.94;4976650;28;20116;-83
2022/04/10 01:04:12;;;;;;;15.27;6.22;;;;;;;1.85;100.00;101498.41;4978573;28;20062;-83
2022/04/10 01:06:38;;;;;;;19.48;6.78;;;;;;;1.85;100.00;101503.81;4962691;28;20031;-83
2022/04/10 01:09:04;;;;;;;18.17;6.43;;;;;;;1.90;100.00;101506.34;4952127;29;20067;-82
2022/04/10 01:11:34;;;;;;;20.83;6.05;;;;;;;1.82;100.00;101503.91;4960671;28;20031;-83
2022/04/10 01:14:00;;;;;;;16.33;6.45;;;;;;;1.80;100.00;101473.38;4957876;28;20073;-83
2022/04/10 01:16:28;;;;;;;17.95;6.53;;;;;;;1.64;100.00;101471.19;4962322;28;20099;-81
2022/04/10 01:18:55;;;;;;;15.85;6.63;;;;;;;1.69;100.00;101487.25;4947873;29;20062;-81
2022/04/10 01:21:26;;;;;;;13.00;6.60;;;;;;;1.78;100.00;101505.81;4959983;28;20423;-83
2022/04/10 01:23:56;;;;;;;18.08;7.18;;;;;;;1.67;100.00;101480.09;4960251;28;20043;-83
2022/04/10 01:26:25;;;;;;;13.50;6.25;;;;;;;1.77;100.00;101498.69;4944592;28;20502;-82
2022/04/10 01:29:02;;;;;;;16.33;6.63;;;;;;;1.72;100.00;101486.25;4965654;28;20442;-82
2022/04/10 01:31:35;;;;;;;16.38;7.35;;;;;;;1.68;100.00;101485.47;4944174;29;20039;-84
2022/04/10 01:34:06;;;;;;;16.33;7.30;;;;;;;1.62;100.00;101474.84;4950046;28;20033;-81
2022/04/10 01:36:34;;;;;;;19.23;7.47;;;;;;;1.72;100.00;101495.25;4965959;28;20105;-84
2022/04/10 01:39:02;;;;;;;19.10;6.85;;;;;;;1.79;100.00;101499.50;4961524;28;20090;-82
2022/04/10 01:41:28;;;;;;;17.08;7.22;;;;;;;1.72;100.00;101494.34;4958556;29;20039;-82
2022/04/10 01:43:55;;;;;;;17.67;8.20;;;;;;;1.80;100.00;101509.38;4972211;28;20034;-81
2022/04/10 01:46:22;;;;;;;13.38;7.40;;;;;;;1.82;100.00;101509.31;4977984;28;20066;-82
2022/04/10 01:48:55;;;;;;;15.30;7.53;;;;;;;1.80;100.00;101511.16;4977468;28;20137;-81
2022/04/10 01:51:20;;;;;;;18.70;7.53;;;;;;;1.77;100.00;101506.78;4965020;28;20031;-83
2022/04/10 01:53:46;;;;;;;19.27;8.43;;;;;;;1.65;100.00;101478.34;4981383;28;20298;-83
2022/04/10 01:56:12;;;;;;;18.92;7.65;;;;;;;1.62;100.00;101502.75;4968719;28;20062;-82
2022/04/10 01:58:42;;;;;;;21.35;7.72;;;;;;;1.56;100.00;101478.66;4975553;28;20506;-83
2022/04/10 02:01:10;;;;;;;19.58;7.72;;;;;;;1.62;100.00;101480.25;4958852;29;20032;-83
2022/04/10 02:03:37;;;;;;;22.42;7.22;;;;;;;1.56;100.00;101475.94;4950976;29;20031;-82
2022/04/10 02:06:04;;;;;;;11.82;7.10;;;;;;;1.58;100.00;101467.81;4942187;29;20027;-83
2022/04/10 02:08:31;;;;;;;16.95;7.55;;;;;;;1.81;100.00;101524.63;4977827;28;20026;-83
2022/04/10 02:10:57;;;;;;;17.10;8.15;;;;;;;1.51;100.00;101466.22;4973956;28;20039;-83
2022/04/10 02:13:24;;;;;;;21.55;8.40;;;;;;;1.55;100.00;101484.97;4959212;28;20482;-82
2022/04/10 02:15:52;;;;;;;15.45;7.82;;;;;;;1.44;100.00;101457.44;4958788;29;20041;-83
2022/04/10 02:18:17;;;;;;;20.27;8.30;;;;;;;1.73;100.00;101505.09;4957680;28;20042;-85
2022/04/10 02:20:43;;;;;;;20.23;8.55;;;;;;;1.61;100.00;101511.75;4976673;28;20035;-84
2022/04/10 02:23:09;;;;;;;15.98;8.27;;;;;;;1.57;100.00;101512.78;4963255;28;20035;-82
2022/04/10 02:25:35;;;;;;;15.07;7.90;;;;;;;1.31;100.00;101477.63;4958266;28;20055;-83
2022/04/10 02:28:01;;;;;;;23.02;9.20;;;;;;;1.41;100.00;101484.50;4958371;28;20038;-82
2022/04/10 02:30:26;;;;;;;23.83;9.45;;;;;;;1.62;100.00;101540.53;4958059;29;20384;-84
2022/04/10 02:32:52;;;;;;;19.00;8.60;;;;;;;1.32;100.00;101485.69;4960185;28;20097;-82
2022/04/10 02:35:18;;;;;;;22.55;9.18;;;;;;;1.50;100.00;101503.13;4957176;28;20031;-82
2022/04/10 02:37:47;;;;;;;25.88;8.70;;;;;;;1.67;100.00;101536.78;4945893;28;20038;-82
2022/04/10 02:40:16;;;;;;;19.33;8.70;;;;;;;1.34;100.00;101489.19;4961640;28;20506;-84
2022/04/10 02:42:45;;;;;;;17.15;8.65;;;;;;;1.35;100.00;101484.72;4959407;28;20027;-82
2022/04/10 02:45:10;;;;;;;19.38;8.63;;;;;;;1.61;100.00;101540.56;4977769;28;20034;-84
2022/04/10 02:47:36;;;;;;;21.67;8.85;;;;;;;1.29;100.00;101488.47;4975055;28;20063;-84
2022/04/10 02:50:03;;;;;;;19.48;8.68;;;;;;;1.56;100.00;101535.31;4957492;28;20023;-84
2022/04/10 02:52:29;;;;;;;20.02;9.02;;;;;;;1.28;100.00;101486.72;4973953;28;20035;-84
2022/04/10 02:54:55;;;;;;;20.38;9.60;;;;;;;1.31;100.00;101504.59;4947673;29;20046;-83
2022/04/10 02:57:20;;;;;;;23.25;9.07;;;;;;;1.51;100.00;101531.88;4948649;29;20035;-84
2022/04/10 02:59:46;;;;;;;23.48;10.43;;;;;;;1.43;100.00;101534.81;4948233;29;20130;-83
2022/04/10 03:02:11;;;;;;;17.13;9.10;;;;;;;1.44;100.00;101544.69;4966074;28;20027;-84
2022/04/10 03:04:37;;;;;;;24.30;10.30;;;;;;;1.31;100.00;101515.41;4983353;28;20038;-82
2022/04/10 03:07:03;;;;;;;20.73;10.27;;;;;;;1.31;100.00;101516.28;4970216;28;20398;-83
2022/04/10 03:09:29;;;;;;;17.27;9.98;;;;;;;1.46;100.00;101539.22;4942093;29;20071;-83
2022/04/10 03:11:54;;;;;;;22.13;10.63;;;;;;;1.47;100.00;101555.34;4959637;28;20140;-84
2022/04/10 03:14:20;;;;;;;19.42;9.73;;;;;;;1.26;100.00;101529.00;4957800;29;20035;-84
2022/04/10 03:16:46;;;;;;;30.02;10.55;;;;;;;1.08;100.00;101500.78;4960238;28;20494;-85
2022/04/10 03:19:11;;;;;;;33.90;10.60;;;;;;;1.37;100.00;101550.28;4977225;28;20034;-83
2022/04/10 03:21:37;;;;;;;23.83;10.63;;;;;;;1.12;100.00;101513.25;4957694;29;20028;-84
2022/04/10 03:24:03;;;;;;;20.85;9.88;;;;;;;1.02;100.00;101501.84;4942375;29;20090;-83
2022/04/10 03:26:29;;;;;;;21.42;9.85;;;;;;;1.08;100.00;101516.94;4941435;29;20027;-83
2022/04/10 03:28:55;;;;;;;22.23;9.90;;;;;;;1.28;100.00;101544.22;4957184;29;20490;-84
2022/04/10 03:31:22;;;;;;;26.35;10.23;;;;;;;1.32;100.00;101544.16;4960669;28;20027;-83
2022/04/10 03:33:48;;;;;;;20.65;11.23;;;;;;;1.29;100.00;101537.88;4941392;28;20093;-83
2022/04/10 03:36:14;;;;;;;24.55;10.57;;;;;;;1.25;100.00;101536.22;4957510;29;20070;-84
2022/04/10 03:38:40;;;;;;;18.42;10.43;;;;;;;1.23;100.00;101532.69;4949315;29;20099;-82
2022/04/10 03:41:05;;;;;;;31.08;10.68;;;;;;;1.37;100.00;101555.69;4971338;28;20122;-83
2022/04/10 03:43:32;;;;;;;18.38;10.65;;;;;;;1.15;100.00;101525.75;4956981;29;20045;-83
2022/04/10 03:46:00;;;;;;;27.05;10.75;;;;;;;1.18;100.00;101529.25;4958008;29;20090;-84
2022/04/10 03:48:26;;;;;;;22.30;10.93;;;;;;;1.19;100.00;101540.91;4974556;28;20035;-84
2022/04/10 03:50:52;;;;;;;29.02;10.85;;;;;;;1.20;100.00;101543.56;4956729;28;20055;-83
2022/04/10 03:53:18;;;;;;;20.58;10.30;;;;;;;1.11;100.00;101530.34;4947753;29;20054;-84
2022/04/10 03:55:43;;;;;;;19.13;10.48;;;;;;;1.17;100.00;101540.97;4958416;29;20038;-83
2022/04/10 03:58:09;;;;;;;23.92;10.07;;;;;;;1.26;100.00;101540.72;4969507;28;20066;-84
2022/04/10 04:00:35;;;;;;;22.08;10.63;;;;;;;1.07;100.00;101520.59;4951172;28;20031;-84
2022/04/10 04:03:03;;;;;;;24.35;10.85;;;;;;;1.01;100.00;101521.63;4964670;28;20037;-84
2022/04/10 04:05:29;;;;;;;22.17;10.38;;;;;;;1.31;100.00;101581.00;4968654;28;20042;-83
2022/04/10 04:07:55;;;;;;;22.92;9.57;;;;;;;1.31;100.00;101572.91;4965056;29;20035;-84
2022/04/10 04:10:21;;;;;;;23.75;10.88;;;;;;;1.06;100.00;101549.34;4964198;29;20442;-84
2022/04/10 04:12:47;;;;;;;17.67;10.20;;;;;;;1.16;100.00;101560.75;4979287;28;20031;-82
2022/04/10 04:15:13;;;;;;;19.90;10.80;;;;;;;1.22;100.00;101554.31;4980772;28;20102;-83
2022/04/10 04:17:38;;;;;;;27.55;11.18;;;;;;;1.34;100.00;101572.84;4976854;28;20114;-85
2022/04/10 04:20:08;;;;;;;21.80;10.15;;;;;;;1.34;100.00;101588.16;4945626;29;20483;-82
2022/04/10 04:22:34;;;;;;;21.25;10.23;;;;;;;1.33;100.00;101594.47;4967526;28;20043;-83
2022/04/10 04:25:01;;;;;;;21.55;11.13;;;;;;;1.19;100.00;101563.38;4960745;28;20042;-83
2022/04/10 04:27:26;;;;;;;35.20;10.13;;;;;;;1.19;100.00;101559.81;4975326;28;20064;-83
2022/04/10 04:29:52;;;;;;;25.88;10.57;;;;;;;1.32;100.00;101577.41;4945121;28;20031;-82
2022/04/10 04:32:18;;;;;;;21.13;10.60;;;;;;;1.27;100.00;101574.81;4984698;28;20037;-83
2022/04/10 04:34:43;;;;;;;24.98;10.77;;;;;;;1.36;100.00;101588.97;4966099;28;20031;-83
2022/04/10 04:37:09;;;;;;;22.05;10.13;;;;;;;1.26;100.00;101569.47;4974262;28;20037;-82
2022/04/10 04:39:35;;;;;;;22.65;10.88;;;;;;;1.32;100.00;101584.63;4971051;28;20047;-83
2022/04/10 04:42:00;;;;;;;33.00;11.40;;;;;;;1.41;100.00;101601.41;4954569;28;20059;-82
2022/04/10 04:44:26;;;;;;;17.00;10.27;;;;;;;1.19;100.00;101590.34;4961742;29;20564;-82
2022/04/10 04:46:52;;;;;;;18.27;10.45;;;;;;;1.28;100.00;101606.28;4951116;28;20030;-83
2022/04/10 04:49:20;;;;;;;23.38;10.63;;;;;;;1.03;100.00;101562.94;4960462;29;20203;-83
2022/04/10 04:51:45;;;;;;;20.98;11.23;;;;;;;1.27;100.00;101603.63;4961480;28;20121;-83
2022/04/10 04:54:11;;;;;;;24.33;10.52;;;;;;;1.07;100.00;101585.31;4972483;28;20476;-83
2022/04/10 04:56:36;;;;;;;23.88;10.55;;;;;;;1.08;100.00;101576.28;4960841;28;20383;-84
2022/04/10 04:59:02;;;;;;;23.65;10.63;;;;;;;1.05;100.00;101568.25;4957063;28;20029;-83
2022/04/10 05:01:27;;;;;;;22.90;10.23;;;;;;;1.24;100.00;101603.69;4951637;29;20043;-84
2022/04/10 05:03:53;;;;;;;20.50;10.55;;;;;;;1.16;100.00;101584.16;4975255;28;20027;-83
2022/04/10 05:06:19;;;;;;;26.65;10.25;;;;;;;1.13;100.00;101584.25;4963153;28;20402;-84
2022/04/10 05:08:47;;;;;;;25.65;10.73;;;;;;;1.08;100.00;101577.19;4979606;28;20031;-83
2022/04/10 05:11:14;;;;;;;21.45;11.00;;;;;;;1.24;100.00;101604.56;4974926;28;20451;-83
2022/04/10 05:13:41;;;;;;;18.55;10.02;;;;;;;1.32;100.00;101611.59;4970550;28;20610;-82
2022/04/10 05:16:07;;;;;;;19.63;9.90;;;;;;;1.35;100.00;101622.28;4968179;28;20047;-84
2022/04/10 05:18:33;;;;;;;20.75;10.13;;;;;;;1.31;100.00;101623.28;4970329;28;20039;-83
2022/04/10 05:21:00;;;;;;;26.33;10.13;;;;;;;1.16;100.00;101587.72;4954157;28;20049;-84
2022/04/10 05:23:26;;;;;;;26.08;10.98;;;;;;;1.30;100.00;101611.63;4963242;28;20102;-83
2022/04/10 05:25:53;;;;;;;20.67;10.32;;;;;;;1.44;100.00;101635.50;4961384;28;20050;-82
2022/04/10 05:28:18;;;;;;;21.90;10.27;;;;;;;1.26;100.00;101600.06;4942529;28;20118;-82
2022/04/10 05:30:44;;;;;;;22.30;10.73;;;;;;;1.39;100.00;101622.13;4955056;29;20114;-82
2022/04/10 05:33:11;;;;;;;18.52;9.27;;;;;;;1.45;100.00;101634.59;4965266;28;20478;-82
2022/04/10 05:35:41;;;;;;;19.42;10.35;;;;;;;1.46;100.00;101645.34;4977331;28;20045;-81
2022/04/10 05:38:08;;;;;;;27.27;10.95;;;;;;;1.53;100.00;101642.47;4965744;28;20439;-82
2022/04/10 05:40:36;;;;;;;26.08;10.23;;;;;;;1.61;100.00;101646.72;4983280;28;20042;-83
2022/04/10 05:43:02;;;;;;;30.52;10.40;;;;;;;1.61;100.00;101638.63;4964364;28;20081;-81
2022/04/10 05:45:27;;;;;;;25.50;11.05;;;;;;;1.70;100.00;101644.66;4980574;28;20030;-82
2022/04/10 05:47:52;;;;;;;31.08;10.23;;;;;;;1.84;100.00;101640.63;4962242;28;20062;-82
2022/04/10 05:50:18;;;;;;;22.15;10.50;;;;;;;1.94;100.00;101654.72;4948796;28;20061;-85
2022/04/10 05:52:46;;;;;;;28.83;9.85;;;;;;;2.03;100.00;101661.66;4995776;28;20049;-81
2022/04/10 05:55:20;;;;;;;26.33;10.18;;;;;;;2.06;100.00;101656.16;4964532;28;20343;-82
2022/04/10 05:57:46;;;;;;;28.50;9.90;;;;;;;2.31;100.00;101660.81;4947208;28;20030;-81
2022/04/10 06:00:15;;;;;;;20.00;9.70;;;;;;;2.58;100.00;101673.44;4976539;28;20034;-79
2022/04/10 06:02:42;;;;;;;29.35;10.13;;;;;;;2.68;100.00;101676.72;4959103;28;20034;-80
2022/04/10 06:05:08;;;;;;;19.00;9.25;;;;;;;2.82;100.00;101680.78;4980856;28;20042;-80
2022/04/10 06:07:35;;;;;;;21.52;9.20;;;;;;;3.25;100.00;101676.63;4959374;28;20023;-82
2022/04/10 06:10:00;;;;;;;16.13;8.88;;;;;;;3.37;100.00;101683.41;4987904;28;20482;-80
2022/04/10 06:12:27;;;;;;;22.35;8.18;;;;;;;3.36;100.00;101681.63;4968192;28;20492;-81
2022/04/10 06:14:53;;;;;;;21.25;8.18;;;;;;;3.42;100.00;101693.13;4985366;28;20050;-82
2022/04/10 06:17:18;;;;;;;18.48;9.55;;;;;;;3.52;100.00;101696.38;4976215;28;20041;-81
2022/04/10 06:19:43;;;;;;;20.00;9.75;;;;;;;3.78;100.00;101692.72;4977828;28;20101;-81
2022/04/10 06:22:09;;;;;;;19.77;8.70;;;;;;;3.80;100.00;101698.09;4963348;28;20042;-80
2022/04/10 06:24:35;;;;;;;18.30;8.25;;;;;;;3.96;100.00;101711.94;4974110;28;20030;-81
2022/04/10 06:27:01;;;;;;;20.85;8.77;;;;;;;3.99;100.00;101703.72;4963737;28;20034;-80
2022/04/10 06:29:29;;;;;;;20.70;8.45;;;;;;;4.01;100.00;101702.69;4959899;28;20046;-82
2022/04/10 06:31:54;;;;;;;20.25;8.55;;;;;;;4.39;100.00;101705.75;4970238;28;20121;-82
2022/04/10 06:34:21;;;;;;;16.88;8.48;;;;;;;4.66;100.00;101712.84;4982600;28;20031;-81
2022/04/10 06:36:47;;;;;;;11.82;7.20;;;;;;;4.40;100.00;101709.34;4965750;28;20038;-81
2022/04/10 06:39:13;;;;;;;20.92;8.70;;;;;;;4.38;100.00;101713.97;4984336;28;20062;-79
2022/04/10 06:41:39;;;;;;;20.45;8.15;;;;;;;4.92;100.00;101720.78;4992053;28;20026;-81
2022/04/10 06:44:05;;;;;;;14.70;7.72;;;;;;;5.30;100.00;101729.16;4979137;28;20035;-80
2022/04/10 06:46:30;;;;;;;21.75;8.13;;;;;;;5.40;100.00;101704.31;4960203;28;20053;-81
2022/04/10 06:48:56;;;;;;;17.92;7.50;;;;;;;5.49;100.00;101720.19;4962420;28;20081;-81
2022/04/10 06:51:21;;;;;;;13.07;7.57;;;;;;;5.81;100.00;101720.59;4965975;28;20038;-80
2022/04/10 06:54:09;;;;;;;17.33;7.88;;;;;;;5.70;100.00;101729.22;4969959;28;20515;-86
2022/04/10 06:56:53;;;;;;;17.23;7.47;;;;;;;5.78;100.00;101726.16;4980306;28;20057;-81
2022/04/10 06:59:19;;;;;;;18.13;7.93;;;;;;;5.70;100.00;101719.22;4972923;28;20026;-81
2022/04/10 07:01:45;;;;;;;16.52;7.32;;;;;;;6.04;100.00;101727.75;4964345;28;20047;-81
2022/04/10 07:04:10;;;;;;;20.83;7.45;;;;;;;6.44;100.00;101718.59;4952950;28;20045;-81
2022/04/10 07:06:38;;;;;;;17.02;7.82;;;;;;;6.65;100.00;101726.66;4973622;28;20034;-81
2022/04/10 07:09:05;;;;;;;14.60;6.50;;;;;;;6.28;100.00;101701.25;4965958;28;20034;-79
2022/04/10 07:11:32;;;;;;;13.68;6.45;;;;;;;7.01;100.00;101738.53;4963089;28;20041;-80
2022/04/10 07:13:57;;;;;;;13.02;6.05;;;;;;;7.25;100.00;101730.97;4973019;28;20045;-80
2022/04/10 07:16:23;;;;;;;16.10;5.78;;;;;;;7.06;100.00;101740.06;4969389;28;20023;-79
2022/04/10 07:18:48;;;;;;;15.80;5.32;;;;;;;7.13;100.00;101738.81;4965809;28;20501;-81
2022/04/10 07:23:41;;;;;;;15.15;5.82;;;;;;;7.46;100.00;101750.75;4952326;28;20091;-80
2022/04/10 07:24:03;;;;;;;13.52;5.47;;;;;;;7.13;100.00;101741.53;4986396;28;20473;-80
2022/04/10 07:26:29;;;;;;;14.32;5.85;;;;;;;7.78;100.00;101745.50;4960819;28;20080;-81
2022/04/10 07:28:55;;;;;;;11.52;5.18;;;;;;;7.65;100.00;101742.53;4974564;28;20023;-81
2022/04/10 07:31:20;;;;;;;15.90;5.43;;;;;;;8.08;100.00;101745.66;4960567;28;20095;-81
2022/04/10 07:33:47;;;;;;;12.13;5.80;;;;;;;8.09;100.00;101742.00;4945510;28;20027;-82
2022/04/10 07:36:13;;;;;;;12.85;5.88;;;;;;;8.03;100.00;101745.03;4954129;28;20031;-80
2022/04/10 07:38:38;;;;;;;12.65;5.13;;;;;;;8.52;100.00;101736.03;4969651;28;20133;-80
2022/04/10 07:41:05;;;;;;;13.57;4.45;;;;;;;8.84;100.00;101747.84;4993365;28;20166;-80
2022/04/10 07:43:33;;;;;;;12.05;4.22;;;;;;;8.79;100.00;101745.38;4975393;28;20030;-80
2022/04/10 07:48:43;;;;;;;12.43;4.25;;;;;;;8.98;100.00;101757.97;4993417;28;20027;-79
2022/04/10 07:51:08;;;;;;;12.70;3.92;;;;;;;9.09;100.00;101760.09;4967704;28;20384;-79
2022/04/10 07:53:34;;;;;;;13.13;4.63;;;;;;;8.90;100.00;101760.25;4972413;28;20443;-80
2022/04/10 07:56:00;;;;;;;14.25;4.07;;;;;;;9.42;100.00;101754.47;4963467;28;20033;-80
2022/04/10 07:58:26;;;;;;;16.30;3.72;;;;;;;9.31;100.00;101765.16;4953961;28;20066;-81
2022/04/10 08:00:51;;;;;;;8.23;3.85;;;;;;;9.63;100.00;101768.72;4980758;28;20077;-81
2022/04/10 08:03:17;;;;;;;7.70;2.80;;;;;;;9.32;100.00;101765.06;4976203;28;20115;-81
2022/04/10 08:05:43;;;;;;;8.20;3.13;;;;;;;9.38;100.00;101772.91;4980053;28;20069;-80
2022/04/10 08:08:10;;;;;;;14.65;3.35;;;;;;;9.41;100.00;101782.78;4986332;28;20057;-80
2022/04/10 08:10:37;;;;;;;11.75;3.15;;;;;;;9.40;100.00;101775.56;4975093;28;20375;-80
2022/04/10 08:13:03;;;;;;;8.27;2.88;;;;;;;9.89;100.00;101785.41;4969314;28;20117;-80
2022/04/10 08:15:28;;;;;;;9.95;2.22;;;;;;;10.00;96.01;101790.19;4961553;28;20511;-81
2022/04/10 08:17:56;;;;;;;8.52;1.65;;;;;;;9.96;96.17;101789.50;4999198;28;20062;-81
2022/04/10 08:20:23;;;;;;;11.10;2.00;;;;;;;10.18;94.89;101783.56;4979696;28;20026;-82
2022/04/10 08:22:49;;;;;;;13.32;2.33;;;;;;;10.52;91.64;101784.22;4951862;28;20034;-80
2022/04/10 08:25:18;;;;;;;9.07;2.65;;;;;;;9.60;96.54;101800.81;4979299;28;20074;-82
2022/04/10 08:27:43;;;;;;;5.25;1.70;;;;;;;9.84;93.97;101793.88;4971694;28;20034;-81
2022/04/10 08:30:10;;;;;;;8.57;1.80;;;;;;;10.07;92.07;101794.31;4967754;28;20049;-80
2022/04/10 08:32:36;;;;;;;4.30;1.50;;;;;;;9.04;99.15;101784.94;4972721;28;20030;-81
2022/04/10 08:35:02;;;;;;;10.63;1.60;;;;;;;8.95;100.00;101789.09;4957310;28;20022;-81
2022/04/10 08:37:28;;;;;;;11.93;1.55;;;;;;;9.17;100.00;101798.78;4969664;28;20499;-80
2022/04/10 08:39:54;;;;;;;4.50;1.58;;;;;;;8.56;100.00;101792.19;4988219;28;20494;-80
2022/04/10 08:42:20;;;;;;;9.18;1.48;;;;;;;8.37;100.00;101801.38;4952522;28;20094;-80
2022/04/10 08:44:46;;;;;;;7.03;1.42;;;;;;;7.87;100.00;101797.69;4978614;28;20054;-82
2022/04/10 08:47:20;;;;;;;4.13;1.58;;;;;;;7.70;100.00;101814.91;4975496;28;20027;-81
2022/04/10 08:49:46;;;;;;;14.05;3.13;;;;;;;7.77;100.00;101809.13;4963804;28;20388;-79
2022/04/10 08:52:12;;;;;;;9.02;1.65;;;;;;;7.72;100.00;101820.28;4955168;28;20038;-79
2022/04/10 08:54:40;;;;;;;9.35;2.10;;;;;;;7.68;100.00;101824.13;4974314;28;20035;-81
2022/04/10 08:57:06;;;;;;;11.10;2.30;;;;;;;7.45;100.00;101822.59;4972263;28;20057;-80
2022/04/10 08:59:33;;;;;;;7.80;2.38;;;;;;;7.43;100.00;101827.22;4982274;28;20094;-79
2022/04/10 09:01:58;;;;;;;9.50;1.98;;;;;;;7.91;100.00;101820.22;4973609;28;20050;-79
2022/04/10 09:04:25;;;;;;;6.72;2.35;;;;;;;9.06;100.00;101829.44;4950028;28;20026;-79
2022/04/10 09:07:04;;;;;;;7.40;2.05;;;;;;;9.01;100.00;101829.69;4973804;28;20058;-80
2022/04/10 09:09:34;;;;;;;3.63;1.75;;;;;;;9.27;100.00;101829.19;4977661;28;20037;-80
2022/04/10 09:12:00;;;;;;;11.50;2.22;;;;;;;10.11;97.51;101836.91;4965696;28;20027;-80
2022/04/10 09:14:39;;;;;;;7.55;1.95;;;;;;;9.57;100.00;101830.13;4965668;28;20030;-81
2022/04/10 09:17:15;;;;;;;9.07;1.67;;;;;;;9.92;98.06;101835.31;4970618;28;20097;-81
2022/04/10 09:19:43;;;;;;;10.77;1.90;;;;;;;9.73;97.03;101837.41;4973006;28;20478;-79
2022/04/10 09:22:27;;;;;;;12.35;2.40;;;;;;;10.70;94.99;101834.19;4946998;28;20045;-80
2022/04/10 09:25:13;;;;;;;5.28;1.50;;;;;;;10.42;93.80;101833.19;4961976;28;20129;-81
2022/04/10 09:27:45;;;;;;;8.05;1.73;;;;;;;10.62;89.86;101818.22;4963690;28;20038;-79
2022/04/10 09:30:15;;;;;;;6.77;1.43;;;;;;;10.66;88.17;101830.75;4976368;28;20065;-79
2022/04/10 09:32:43;;;;;;;5.72;1.50;;;;;;;10.40;90.14;101831.53;4977012;28;20027;-79
2022/04/10 09:35:11;;;;;;;5.18;1.15;;;;;;;10.71;87.80;101826.84;4975941;28;20137;-78
2022/04/10 09:37:42;;;;;;;5.50;1.33;;;;;;;10.59;83.18;101837.63;4980271;28;20030;-78
2022/04/10 09:40:27;;;;;;;8.75;1.48;;;;;;;10.72;80.73;101824.00;4960087;29;20055;-78
2022/04/10 09:43:10;;;;;;;7.65;1.98;;;;;;;11.34;84.68;101825.47;4949606;29;20480;-79
2022/04/10 09:45:40;;;;;;;4.35;0.88;;;;;;;10.82;80.73;101822.44;4952132;28;20023;-79
2022/04/10 09:48:26;;;;;;;5.97;1.08;;;;;;;10.51;83.08;101830.84;4962762;28;20030;-79
2022/04/10 09:50:59;;;;;;;4.78;1.40;;;;;;;11.18;83.07;101826.50;4978718;28;20027;-78
2022/04/10 09:53:26;;;;;;;4.88;1.00;;;;;;;11.54;80.74;101821.38;4976765;28;20027;-78
2022/04/10 09:56:02;;;;;;;5.18;1.35;;;;;;;10.93;81.32;101820.88;4962311;28;20493;-79
2022/04/10 09:58:28;;;;;;;3.38;1.10;;;;;;;10.52;81.50;101818.94;4957180;29;20035;-79
2022/04/10 10:00:54;;;;;;;6.53;1.35;;;;;;;11.32;82.36;101817.34;4941010;29;20046;-80
2022/04/10 10:03:21;;;;;;;4.82;1.50;;;;;;;11.15;82.31;101804.78;4958997;29;20500;-80
2022/04/10 10:05:49;;;;;;;7.93;1.63;;;;;;;11.33;80.76;101824.59;4952560;28;20043;-79
2022/04/10 10:08:17;;;;;;;5.60;1.30;;;;;;;11.57;77.00;101811.06;4953073;28;20041;-80
2022/04/10 10:10:43;;;;;;;9.52;1.27;;;;;;;10.76;81.46;101803.66;4975164;28;20050;-77
2022/04/10 10:13:09;;;;;;;9.20;1.30;;;;;;;10.26;79.83;101807.72;4956548;28;20058;-77
2022/04/10 10:15:36;;;;;;;6.18;1.30;;;;;;;10.33;82.71;101800.94;4970021;28;20438;-78
2022/04/10 10:18:04;;;;;;;8.73;1.48;;;;;;;10.93;84.01;101805.28;4959965;28;20035;-79
2022/04/10 10:20:30;;;;;;;4.40;1.17;;;;;;;10.68;80.20;101811.50;4961568;28;20094;-78
2022/04/10 10:22:57;;;;;;;6.65;1.33;;;;;;;10.66;73.08;101808.84;4959282;29;20035;-79
2022/04/10 10:25:38;;;;;;;4.57;1.02;;;;;;;10.88;75.98;101812.06;4959697;28;20403;-79
2022/04/10 10:28:25;;;;;;;7.68;1.30;;;;;;;11.72;75.10;101808.28;4958320;28;20078;-78
2022/04/10 10:31:18;;;;;;;6.13;1.30;;;;;;;11.92;74.67;101812.41;4946501;28;20042;-78
2022/04/10 10:33:52;;;;;;;7.60;1.65;;;;;;;12.32;75.23;101807.75;4960479;28;20483;-78
2022/04/10 10:36:24;;;;;;;5.22;1.05;;;;;;;11.65;75.01;101809.69;4976704;28;20364;-78
2022/04/10 10:38:52;;;;;;;3.78;1.20;;;;;;;11.08;76.30;101797.06;4948637;28;20042;-77
2022/04/10 10:41:18;;;;;;;2.80;1.10;;;;;;;11.29;76.13;101813.94;4959294;28;20375;-78
2022/04/10 10:43:44;;;;;;;6.15;1.05;;;;;;;11.73;72.93;101802.69;4968656;28;20066;-78
2022/04/10 10:46:23;;;;;;;5.25;1.38;;;;;;;11.09;71.29;101812.53;4950541;28;20117;-77
2022/04/10 10:48:50;;;;;;;5.50;1.10;;;;;;;11.84;69.57;101799.22;4973659;28;20113;-78
2022/04/10 10:51:15;;;;;;;6.22;1.10;;;;;;;11.64;72.57;101810.66;4962369;28;20077;-79
2022/04/10 10:53:42;;;;;;;7.00;1.23;;;;;;;11.48;71.86;101808.97;4978229;28;20113;-79
2022/04/10 10:56:18;;;;;;;3.85;1.13;;;;;;;10.36;69.78;101808.94;4957102;28;20027;-79
2022/04/10 10:58:44;;;;;;;5.32;1.20;;;;;;;10.94;74.63;101807.06;4963981;28;20090;-77
2022/04/10 11:01:25;;;;;;;3.80;0.90;;;;;;;11.71;66.93;101814.75;4964859;28;20035;-79
2022/04/10 11:04:06;;;;;;;6.60;1.00;;;;;;;11.97;65.51;101809.34;4960986;28;20043;-77
2022/04/10 11:06:45;;;;;;;9.00;1.45;;;;;;;11.83;65.23;101805.69;4969424;28;20434;-79
2022/04/10 11:09:31;;;;;;;4.63;0.90;;;;;;;11.76;62.76;101798.88;4969287;28;20038;-77
2022/04/10 11:11:58;;;;;;;4.03;1.00;;;;;;;12.33;64.81;101805.91;4958358;28;21839;-77
2022/04/10 11:14:56;;;;;;;5.78;1.13;;;;;;;12.49;61.85;101802.91;4965704;28;20165;-78
2022/04/10 11:17:28;;;;;;;2.92;0.80;;;;;;;12.17;64.62;101795.13;4964003;28;20550;-77
2022/04/10 11:20:15;;;;;;;2.80;1.00;;;;;;;12.94;67.42;101789.56;4954072;28;20031;-77
2022/04/10 11:22:49;;;;;;;3.55;1.02;;;;;;;12.62;64.45;101790.03;4967336;28;20039;-77